Leoma, TN (38468)

06:54 AM CST die 11o February, anno 2016 (GMT -0600)
WLX Radio Studios | | Change Station
CLOSE
Current Station
Personal Weather Stations
Location: Lawrenceburg, TN
Elevation: 932 ft
Nearby Weather Stations

Elev 932 ft 35.25 °N, 87.33 °W | Updated 35 seconds ago

Partialiter Nubila
Partialiter Nubila
25.2 °F
Feels Like 25 °F
N
0.0
Ventus Variabilis Ventus from Inter Aquilonem et Eurum
Gusts 0.0 mph

Hodie
High -- | Low -- °F
--% Chance of Precip.
Yesterday
High -- | Low -- °F
Precip. -- in
Pressio 30.17 in
Visibilitas 10.0 milia passuum
Clouds Serena
Frigus Venti 25 °F
Frigus in quo Ros apparet 20 °F
Umor 80%
Rainfall 0.00 in
Snow Depth Not available.
6:40 AM 5:27 PM
Waxing Crescent, 11% visible
METAR KMRC 111235Z AUTO 06005KT 10SM CLR M05/M05 A3017 RMK
Pressio 30.17 in
Visibilitas 10.0 milia passuum
Clouds Serena
Frigus Venti 25 °F
Frigus in quo Ros apparet 20 °F
Umor 80%
Rainfall 0.00 in
Snow Depth Not available.
6:40 AM 5:27 PM
Waxing Crescent, 11% visible
METAR KMRC 111235Z AUTO 06005KT 10SM CLR M05/M05 A3017 RMK

10-Day Weather Forecast

Almanac

Astronomy

Feb. 11, 2016 Rise Set
Actual Time
Civil Twilight
Nautical Twilight
Astronomical Twilight
Moon
Length Of Visible Light
Length of Day
Tomorrow will be .
, % of the Moon is Illuminated

Today's Extremes

State Highs State Lows

Community

WunderPhotos

Upload Photos

1,892,037 photos uploaded!

WunderBlog® & News

Nearby

Air Quality

  Air Quality AQ Index Pollutant
Not available.

Snow Depth

Station Depth Elevation

Earthquake Activity

City Distance Mag. Time & Date
Minimum magnitude displayed is 2.5.

Coastal Water Temperatures

Locus Calor

Stations

Nearby Weather Stations

Station Location Temp Frigus Venti Frigus in quo Ros apparet Umor Ventus Precip. Elev Renovata Type
                   

Watches & Warnings

There are currently no watches in effect.